Time;durP1;ratioP1;P1;durP2;ratioP2;P2;SDS_P1;SDS_P2;PMS_P1;PMS_P2;Temp;Humidity;BMP_temperature;BMP_pressure;BME280_temperature;BME280_humidity;BME280_pressure;Samples;Min_cycle;Max_cycle;Signal;HPM_P1;HPM_P2
2023/04/10 00:02:18;;;;;;;42.83;25.33;;;;;;;;;;5086806;28;20053;-68
2023/04/10 00:04:45;;;;;;;44.55;25.48;;;;;;;;;;5086169;28;20410;-68
2023/04/10 00:07:13;;;;;;;47.22;26.63;;;;;;;;;;5087326;28;20056;-69
2023/04/10 00:09:40;;;;;;;46.83;27.42;;;;;;;;;;5065569;28;20054;-68
2023/04/10 00:12:07;;;;;;;45.22;26.35;;;;;;;;;;5086143;28;20079;-68
2023/04/10 00:14:35;;;;;;;45.15;25.80;;;;;;;;;;5083878;28;20064;-68
2023/04/10 00:17:03;;;;;;;45.67;26.88;;;;;;;;;;5084852;28;20050;-68
2023/04/10 00:19:31;;;;;;;46.00;25.90;;;;;;;;;;5083862;28;20055;-68
2023/04/10 00:21:58;;;;;;;47.53;27.17;;;;;;;;;;5079766;28;20041;-68
2023/04/10 00:24:25;;;;;;;48.65;28.05;;;;;;;;;;5086814;28;20356;-68
2023/04/10 00:26:52;;;;;;;47.70;27.58;;;;;;;;;;5066911;28;20119;-68
2023/04/10 00:29:20;;;;;;;47.55;27.65;;;;;;;;;;5086513;28;20044;-68
2023/04/10 00:31:47;;;;;;;49.17;27.45;;;;;;;;;;5082966;28;20430;-68
2023/04/10 00:34:16;;;;;;;44.08;27.55;;;;;;;;;;5081662;28;20056;-68
2023/04/10 00:36:43;;;;;;;49.22;28.15;;;;;;;;;;5080951;28;20051;-69
2023/04/10 00:39:11;;;;;;;49.97;27.02;;;;;;;;;;5086264;28;20529;-69
2023/04/10 00:41:38;;;;;;;49.10;28.65;;;;;;;;;;5085143;28;20055;-68
2023/04/10 00:44:07;;;;;;;50.28;28.83;;;;;;;;;;5080807;28;20123;-68
2023/04/10 00:46:34;;;;;;;50.88;29.05;;;;;;;;;;5066738;28;20048;-68
2023/04/10 00:49:02;;;;;;;52.35;29.17;;;;;;;;;;5087487;28;20067;-68
2023/04/10 00:51:30;;;;;;;50.83;28.05;;;;;;;;;;5067396;28;20056;-68
2023/04/10 00:53:57;;;;;;;53.78;29.75;;;;;;;;;;5076560;28;20399;-68
2023/04/10 00:56:25;;;;;;;50.25;29.25;;;;;;;;;;5086087;28;20356;-68
2023/04/10 00:58:52;;;;;;;57.85;29.77;;;;;;;;;;5084833;28;20475;-68
2023/04/10 01:01:20;;;;;;;47.97;29.02;;;;;;;;;;5083588;28;20415;-68
2023/04/10 01:03:47;;;;;;;53.00;30.27;;;;;;;;;;5068096;28;20060;-68
2023/04/10 01:06:19;;;;;;;50.78;29.40;;;;;;;;;;5084091;28;20052;-68
2023/04/10 01:08:54;;;;;;;52.78;29.90;;;;;;;;;;5084152;28;20050;-68
2023/04/10 01:11:25;;;;;;;53.30;29.33;;;;;;;;;;5079568;28;20495;-68
2023/04/10 01:13:55;;;;;;;50.55;29.83;;;;;;;;;;5068861;28;20044;-68
2023/04/10 01:16:25;;;;;;;53.05;30.98;;;;;;;;;;5085209;28;20123;-69
2023/04/10 01:18:58;;;;;;;51.67;30.58;;;;;;;;;;5086994;28;20044;-68
2023/04/10 01:21:25;;;;;;;51.70;29.58;;;;;;;;;;5085423;28;20040;-68
2023/04/10 01:24:10;;;;;;;54.47;29.27;;;;;;;;;;5080957;28;20052;-68
2023/04/10 01:26:47;;;;;;;53.83;30.98;;;;;;;;;;5044892;28;20052;-69
2023/04/10 01:29:19;;;;;;;49.20;29.55;;;;;;;;;;5086212;28;20531;-68
2023/04/10 01:31:51;;;;;;;55.67;29.85;;;;;;;;;;5086180;28;20445;-68
2023/04/10 01:34:20;;;;;;;48.75;28.13;;;;;;;;;;5064905;28;20052;-68
2023/04/10 01:36:49;;;;;;;55.08;30.02;;;;;;;;;;5088313;28;20048;-68
2023/04/10 01:39:19;;;;;;;50.90;30.73;;;;;;;;;;5071308;28;20060;-69
2023/04/10 01:41:47;;;;;;;55.15;30.92;;;;;;;;;;5088745;28;20471;-68
2023/04/10 01:44:15;;;;;;;51.85;30.38;;;;;;;;;;5068305;28;20087;-68
2023/04/10 01:46:45;;;;;;;52.90;30.42;;;;;;;;;;5089706;28;20059;-68
2023/04/10 01:49:12;;;;;;;51.03;29.42;;;;;;;;;;5064470;28;20058;-68
2023/04/10 01:51:40;;;;;;;56.00;30.77;;;;;;;;;;5084455;28;20052;-68
2023/04/10 01:54:08;;;;;;;55.50;29.40;;;;;;;;;;5089467;28;20051;-68
2023/04/10 01:56:35;;;;;;;49.38;28.48;;;;;;;;;;5085335;28;20044;-68
2023/04/10 01:59:04;;;;;;;49.58;29.20;;;;;;;;;;5085461;28;20047;-68
2023/04/10 02:01:31;;;;;;;51.75;29.20;;;;;;;;;;5083199;28;20050;-68
2023/04/10 02:04:01;;;;;;;51.50;29.17;;;;;;;;;;5087001;28;20058;-68
2023/04/10 02:06:34;;;;;;;51.75;29.58;;;;;;;;;;5086268;28;20090;-68
2023/04/10 02:09:08;;;;;;;51.92;29.17;;;;;;;;;;5085590;28;20057;-68
2023/04/10 02:11:39;;;;;;;49.42;28.70;;;;;;;;;;5087390;28;20143;-68
2023/04/10 02:14:08;;;;;;;51.05;28.30;;;;;;;;;;5078570;28;20506;-68
2023/04/10 02:16:37;;;;;;;50.00;29.50;;;;;;;;;;5084768;28;20059;-68
2023/04/10 02:19:06;;;;;;;52.65;29.70;;;;;;;;;;5087310;28;20058;-68
2023/04/10 02:21:34;;;;;;;50.42;29.75;;;;;;;;;;5089727;28;20048;-68
2023/04/10 02:24:01;;;;;;;51.22;28.83;;;;;;;;;;5085752;28;20124;-68
2023/04/10 02:26:28;;;;;;;55.08;29.20;;;;;;;;;;5080595;28;20056;-69
2023/04/10 02:28:56;;;;;;;54.20;29.67;;;;;;;;;;5087628;28;20173;-68
2023/04/10 02:31:24;;;;;;;53.17;28.63;;;;;;;;;;5082544;28;20461;-69
2023/04/10 02:33:52;;;;;;;52.70;30.20;;;;;;;;;;5083945;28;20426;-68
2023/04/10 02:36:21;;;;;;;53.03;30.30;;;;;;;;;;5084423;28;20071;-68
2023/04/10 02:38:48;;;;;;;49.28;28.55;;;;;;;;;;5085084;28;20059;-68
2023/04/10 02:41:16;;;;;;;50.67;28.73;;;;;;;;;;5081207;28;20055;-68
2023/04/10 02:43:43;;;;;;;48.70;29.98;;;;;;;;;;5081678;28;20054;-68
2023/04/10 02:46:10;;;;;;;48.63;30.05;;;;;;;;;;5086800;28;20052;-68
2023/04/10 02:48:37;;;;;;;54.08;29.60;;;;;;;;;;5085414;28;20051;-68
2023/04/10 02:51:05;;;;;;;53.42;29.65;;;;;;;;;;5088058;28;20044;-68
2023/04/10 02:53:34;;;;;;;48.60;29.35;;;;;;;;;;5079260;28;20047;-68
2023/04/10 02:56:01;;;;;;;53.17;30.13;;;;;;;;;;5083889;28;20051;-68
2023/04/10 02:58:29;;;;;;;48.35;27.92;;;;;;;;;;5070891;28;20040;-68
2023/04/10 03:00:56;;;;;;;53.83;29.08;;;;;;;;;;5087448;28;20123;-68
2023/04/10 03:03:24;;;;;;;52.05;29.63;;;;;;;;;;5081027;28;20048;-68
2023/04/10 03:05:51;;;;;;;51.92;28.52;;;;;;;;;;5084905;28;20051;-68
2023/04/10 03:08:19;;;;;;;56.78;29.38;;;;;;;;;;5088138;28;20044;-69
2023/04/10 03:10:48;;;;;;;54.25;29.33;;;;;;;;;;5088497;28;20048;-68
2023/04/10 03:13:15;;;;;;;51.28;29.45;;;;;;;;;;5088565;28;20092;-68
2023/04/10 03:15:42;;;;;;;50.25;28.48;;;;;;;;;;5088485;28;20044;-68
2023/04/10 03:18:10;;;;;;;52.90;29.05;;;;;;;;;;5068888;28;20467;-68
2023/04/10 03:20:38;;;;;;;50.92;28.08;;;;;;;;;;5083510;28;20052;-68
2023/04/10 03:23:06;;;;;;;50.03;29.38;;;;;;;;;;5085947;28;20517;-68
2023/04/10 03:25:35;;;;;;;49.33;28.55;;;;;;;;;;5086167;28;20135;-68
2023/04/10 03:28:06;;;;;;;49.97;29.67;;;;;;;;;;5086943;28;20048;-68
2023/04/10 03:30:34;;;;;;;49.00;29.60;;;;;;;;;;5086954;28;20483;-68
2023/04/10 03:33:02;;;;;;;51.53;29.58;;;;;;;;;;5083500;28;20118;-68
2023/04/10 03:35:29;;;;;;;55.60;30.42;;;;;;;;;;5084863;28;20048;-68
2023/04/10 03:37:56;;;;;;;51.05;29.05;;;;;;;;;;5075964;28;20060;-68
2023/04/10 03:40:23;;;;;;;46.67;27.40;;;;;;;;;;5085796;28;20052;-68
2023/04/10 03:42:51;;;;;;;51.63;29.58;;;;;;;;;;5062355;28;20067;-68
2023/04/10 03:45:19;;;;;;;45.53;28.42;;;;;;;;;;5085428;28;20062;-68
2023/04/10 03:47:47;;;;;;;53.83;29.13;;;;;;;;;;5083931;28;20226;-69
2023/04/10 03:50:14;;;;;;;47.97;28.25;;;;;;;;;;5082899;28;20147;-68
2023/04/10 03:52:41;;;;;;;50.40;29.40;;;;;;;;;;5079686;28;20059;-68
2023/04/10 03:55:09;;;;;;;52.78;28.00;;;;;;;;;;5083044;28;20040;-68
2023/04/10 03:57:36;;;;;;;48.83;29.08;;;;;;;;;;5086560;28;20048;-68
2023/04/10 04:00:04;;;;;;;49.20;26.95;;;;;;;;;;5085778;28;20515;-69
2023/04/10 04:02:33;;;;;;;49.20;28.70;;;;;;;;;;5082588;28;20402;-68
2023/04/10 04:05:00;;;;;;;52.47;28.88;;;;;;;;;;5062631;28;20052;-68
2023/04/10 04:07:27;;;;;;;45.58;26.75;;;;;;;;;;5080262;28;20450;-68
2023/04/10 04:09:55;;;;;;;46.13;27.98;;;;;;;;;;5086469;28;20089;-69
2023/04/10 04:12:22;;;;;;;47.20;26.63;;;;;;;;;;5085653;28;20184;-68
2023/04/10 04:14:49;;;;;;;50.63;28.42;;;;;;;;;;5083403;28;20047;-69
2023/04/10 04:17:16;;;;;;;46.55;26.77;;;;;;;;;;5087179;28;20056;-68
2023/04/10 04:19:45;;;;;;;44.47;27.17;;;;;;;;;;5087210;28;20067;-68
2023/04/10 04:22:13;;;;;;;47.33;26.73;;;;;;;;;;5085190;28;20048;-68
2023/04/10 04:24:40;;;;;;;47.15;27.85;;;;;;;;;;5082842;28;20051;-68
2023/04/10 04:27:07;;;;;;;48.30;27.42;;;;;;;;;;5081783;28;20044;-68
2023/04/10 04:29:35;;;;;;;44.75;26.95;;;;;;;;;;5086043;28;20052;-68
2023/04/10 04:32:02;;;;;;;45.40;26.20;;;;;;;;;;5079012;28;20495;-69
2023/04/10 04:34:29;;;;;;;45.78;27.10;;;;;;;;;;5083446;28;20515;-69
2023/04/10 04:36:58;;;;;;;47.47;25.67;;;;;;;;;;5083167;28;20063;-68
2023/04/10 04:39:25;;;;;;;41.63;25.08;;;;;;;;;;5082610;28;20040;-68
2023/04/10 04:41:52;;;;;;;45.47;26.35;;;;;;;;;;5081367;28;20453;-68
2023/04/10 04:44:19;;;;;;;47.20;26.00;;;;;;;;;;5081525;28;20055;-68
2023/04/10 04:46:47;;;;;;;45.33;25.63;;;;;;;;;;5084092;28;20101;-68
2023/04/10 04:49:14;;;;;;;43.55;24.83;;;;;;;;;;5079452;28;20095;-68
2023/04/10 04:51:41;;;;;;;38.75;24.15;;;;;;;;;;5078666;28;20056;-69
2023/04/10 04:54:10;;;;;;;37.58;23.30;;;;;;;;;;5074270;28;20049;-68
2023/04/10 04:56:37;;;;;;;41.83;23.65;;;;;;;;;;5081894;28;20059;-68
2023/04/10 04:59:04;;;;;;;37.50;23.13;;;;;;;;;;5079267;28;20048;-68
2023/04/10 05:01:32;;;;;;;40.53;23.70;;;;;;;;;;5082993;28;20059;-68
2023/04/10 05:03:59;;;;;;;38.17;23.45;;;;;;;;;;5075762;28;20127;-68
2023/04/10 05:06:26;;;;;;;39.33;24.00;;;;;;;;;;5083166;28;20117;-68
2023/04/10 05:08:53;;;;;;;40.20;23.33;;;;;;;;;;5087879;28;20044;-68
2023/04/10 05:11:22;;;;;;;38.75;23.48;;;;;;;;;;5088961;28;20066;-68
2023/04/10 05:13:50;;;;;;;37.75;22.27;;;;;;;;;;5080156;28;20144;-68
2023/04/10 05:16:17;;;;;;;38.15;22.58;;;;;;;;;;5081451;28;20056;-69
2023/04/10 05:18:44;;;;;;;38.10;22.83;;;;;;;;;;5078949;28;20052;-69
2023/04/10 05:21:11;;;;;;;37.92;22.48;;;;;;;;;;5085328;28;20044;-69
2023/04/10 05:23:39;;;;;;;33.85;21.30;;;;;;;;;;5080453;28;20051;-69
2023/04/10 05:26:06;;;;;;;40.65;23.13;;;;;;;;;;5084250;28;20097;-68
2023/04/10 05:28:35;;;;;;;32.10;21.30;;;;;;;;;;5086868;28;20044;-69
2023/04/10 05:31:02;;;;;;;35.30;21.42;;;;;;;;;;5064637;28;20094;-68
2023/04/10 05:33:30;;;;;;;37.00;21.17;;;;;;;;;;5083153;28;20051;-69
2023/04/10 05:35:57;;;;;;;33.88;20.45;;;;;;;;;;5079677;28;20503;-68
2023/04/10 05:38:24;;;;;;;33.10;19.58;;;;;;;;;;5062329;28;20838;-69
2023/04/10 05:40:51;;;;;;;32.63;19.85;;;;;;;;;;5091015;28;20135;-69
2023/04/10 05:43:20;;;;;;;35.80;21.23;;;;;;;;;;5083030;28;21601;-68
2023/04/10 05:45:49;;;;;;;32.30;20.50;;;;;;;;;;5089283;28;20060;-69
2023/04/10 05:48:17;;;;;;;31.02;19.27;;;;;;;;;;5089139;28;20082;-69
2023/04/10 05:50:44;;;;;;;31.88;19.55;;;;;;;;;;5083870;28;20051;-69
2023/04/10 05:53:13;;;;;;;31.42;19.42;;;;;;;;;;5071775;28;20204;-68
2023/04/10 05:55:40;;;;;;;31.65;18.85;;;;;;;;;;5086154;28;20075;-69
2023/04/10 05:58:07;;;;;;;31.17;18.85;;;;;;;;;;5079537;28;20064;-69
2023/04/10 06:00:35;;;;;;;29.05;18.33;;;;;;;;;;5082744;28;20048;-69
2023/04/10 06:03:04;;;;;;;29.17;18.15;;;;;;;;;;5080067;28;20055;-69
2023/04/10 06:05:31;;;;;;;27.55;17.48;;;;;;;;;;5083384;28;20521;-68
2023/04/10 06:07:59;;;;;;;27.23;17.35;;;;;;;;;;5085652;28;20091;-69
2023/04/10 06:10:29;;;;;;;28.25;16.83;;;;;;;;;;5087691;28;20139;-69
2023/04/10 06:12:56;;;;;;;29.77;17.90;;;;;;;;;;5084978;28;20060;-69
2023/04/10 06:15:23;;;;;;;25.38;16.15;;;;;;;;;;5062968;28;20054;-69
2023/04/10 06:17:52;;;;;;;24.17;16.45;;;;;;;;;;5084047;28;20060;-68
2023/04/10 06:20:21;;;;;;;30.92;16.98;;;;;;;;;;5085769;28;20083;-69
2023/04/10 06:22:48;;;;;;;24.23;15.85;;;;;;;;;;5081523;28;20062;-69
2023/04/10 06:25:16;;;;;;;26.50;16.17;;;;;;;;;;5080825;28;20375;-68
2023/04/10 06:27:43;;;;;;;24.95;15.45;;;;;;;;;;5082312;28;20045;-68
2023/04/10 06:30:11;;;;;;;25.75;16.13;;;;;;;;;;5083707;28;20495;-68
2023/04/10 06:32:38;;;;;;;27.52;15.98;;;;;;;;;;5082363;28;20048;-67
2023/04/10 06:35:06;;;;;;;22.27;15.23;;;;;;;;;;5085159;28;20071;-68
2023/04/10 06:37:34;;;;;;;25.08;16.13;;;;;;;;;;5086908;28;20051;-68
2023/04/10 06:40:05;;;;;;;24.00;15.13;;;;;;;;;;5064623;28;20119;-69
2023/04/10 06:42:33;;;;;;;26.08;15.65;;;;;;;;;;5085483;28;20047;-69
2023/04/10 06:45:00;;;;;;;24.60;15.10;;;;;;;;;;5080822;28;20060;-68
2023/04/10 06:47:27;;;;;;;23.38;14.85;;;;;;;;;;5078054;28;20044;-69
2023/04/10 06:49:54;;;;;;;24.33;14.77;;;;;;;;;;5085819;28;20051;-69
2023/04/10 06:52:22;;;;;;;22.48;14.38;;;;;;;;;;5084058;28;20052;-68
2023/04/10 06:54:50;;;;;;;24.77;14.80;;;;;;;;;;5085998;28;20044;-68
2023/04/10 06:57:18;;;;;;;23.30;14.20;;;;;;;;;;5083945;28;20052;-68
2023/04/10 06:59:45;;;;;;;21.88;13.48;;;;;;;;;;5087878;28;20105;-69
2023/04/10 07:02:12;;;;;;;25.30;14.43;;;;;;;;;;5085894;28;20063;-69
2023/04/10 07:04:40;;;;;;;22.15;14.88;;;;;;;;;;5079205;28;20119;-68
2023/04/10 07:07:08;;;;;;;23.23;14.02;;;;;;;;;;5077438;28;20059;-69
2023/04/10 07:09:36;;;;;;;21.48;13.50;;;;;;;;;;5081253;28;20052;-68
2023/04/10 07:12:04;;;;;;;24.27;14.40;;;;;;;;;;5078386;28;20402;-69
2023/04/10 07:14:33;;;;;;;22.10;13.80;;;;;;;;;;5080887;28;20059;-68
2023/04/10 07:17:00;;;;;;;22.20;13.20;;;;;;;;;;5080500;28;20043;-69
2023/04/10 07:19:27;;;;;;;24.25;14.15;;;;;;;;;;5086969;28;20135;-69
2023/04/10 07:21:55;;;;;;;22.95;13.93;;;;;;;;;;5064764;28;20426;-69
2023/04/10 07:24:22;;;;;;;23.38;14.70;;;;;;;;;;5063820;28;20053;-70
2023/04/10 07:26:50;;;;;;;22.60;14.27;;;;;;;;;;5078927;28;20306;-69
2023/04/10 07:29:18;;;;;;;22.65;14.63;;;;;;;;;;5076161;28;20399;-69
2023/04/10 07:31:46;;;;;;;24.05;13.98;;;;;;;;;;5076550;28;20131;-68
2023/04/10 07:34:13;;;;;;;23.17;13.50;;;;;;;;;;5081292;28;20051;-69
2023/04/10 07:36:40;;;;;;;22.05;12.57;;;;;;;;;;5081232;28;20044;-68
2023/04/10 07:39:07;;;;;;;20.48;13.00;;;;;;;;;;5082764;28;20443;-69
2023/04/10 07:41:35;;;;;;;20.83;12.48;;;;;;;;;;5079671;28;20502;-69
2023/04/10 07:44:02;;;;;;;22.15;12.43;;;;;;;;;;5085235;28;20497;-68
2023/04/10 07:46:31;;;;;;;19.42;12.25;;;;;;;;;;5083289;28;20088;-69
2023/04/10 07:49:06;;;;;;;24.27;12.52;;;;;;;;;;5101458;27;1312508;-70
2023/04/10 07:51:33;;;;;;;20.10;11.60;;;;;;;;;;5118939;27;20482;-69
2023/04/10 07:54:00;;;;;;;19.45;12.35;;;;;;;;;;5125643;27;20044;-70
2023/04/10 07:56:30;;;;;;;19.70;11.85;;;;;;;;;;5123592;27;20055;-70
2023/04/10 07:58:59;;;;;;;17.30;11.43;;;;;;;;;;5118733;27;20052;-70
2023/04/10 08:01:27;;;;;;;18.00;11.52;;;;;;;;;;5122148;27;20077;-69
2023/04/10 08:03:55;;;;;;;19.02;11.50;;;;;;;;;;5122482;27;20066;-69
2023/04/10 08:06:24;;;;;;;16.70;11.38;;;;;;;;;;5121787;27;20066;-69
2023/04/10 08:08:52;;;;;;;15.57;10.23;;;;;;;;;;5123840;27;20040;-70
2023/04/10 08:11:26;;;;;;;14.40;10.27;;;;;;;;;;5124436;27;20109;-69
2023/04/10 08:13:54;;;;;;;15.07;11.05;;;;;;;;;;5121358;27;20093;-69
2023/04/10 08:16:23;;;;;;;17.50;10.60;;;;;;;;;;5123498;27;20104;-69
2023/04/10 08:18:51;;;;;;;15.10;10.65;;;;;;;;;;5120851;27;20125;-69
2023/04/10 08:21:18;;;;;;;17.05;10.80;;;;;;;;;;5122219;27;20054;-69
2023/04/10 08:23:47;;;;;;;15.85;10.70;;;;;;;;;;5120697;27;20043;-70
2023/04/10 08:26:14;;;;;;;16.00;10.77;;;;;;;;;;5123025;27;20044;-69
2023/04/10 08:28:46;;;;;;;17.80;10.40;;;;;;;;;;5124626;27;20070;-69
2023/04/10 08:31:13;;;;;;;15.75;10.63;;;;;;;;;;5124797;27;20522;-70
2023/04/10 08:33:40;;;;;;;14.32;9.85;;;;;;;;;;5122440;27;20142;-69
2023/04/10 08:36:09;;;;;;;15.50;10.88;;;;;;;;;;5120780;27;20058;-70
2023/04/10 08:38:36;;;;;;;15.52;10.27;;;;;;;;;;5121551;27;20120;-69
2023/04/10 08:41:05;;;;;;;15.43;10.18;;;;;;;;;;5124050;27;20391;-69
2023/04/10 08:43:33;;;;;;;15.05;10.88;;;;;;;;;;5123585;27;20044;-69
2023/04/10 08:46:02;;;;;;;15.63;9.98;;;;;;;;;;5124595;27;20123;-70
2023/04/10 08:48:32;;;;;;;16.45;11.00;;;;;;;;;;5123571;27;20155;-70
2023/04/10 08:51:01;;;;;;;15.25;10.32;;;;;;;;;;5119403;27;20051;-70
2023/04/10 08:53:30;;;;;;;16.52;10.63;;;;;;;;;;5118233;27;20051;-70
2023/04/10 08:55:57;;;;;;;13.95;9.98;;;;;;;;;;5123467;27;20040;-69
2023/04/10 08:58:26;;;;;;;14.32;10.30;;;;;;;;;;5116415;27;20051;-69
2023/04/10 09:00:53;;;;;;;14.93;10.55;;;;;;;;;;5105420;28;20451;-69
2023/04/10 09:03:21;;;;;;;16.40;10.68;;;;;;;;;;5109521;28;20044;-70
2023/04/10 09:05:48;;;;;;;14.75;10.05;;;;;;;;;;5110133;27;20060;-69
2023/04/10 09:08:16;;;;;;;14.82;10.25;;;;;;;;;;5109365;28;20044;-70
2023/04/10 09:10:43;;;;;;;15.25;10.73;;;;;;;;;;5113819;27;20055;-69
2023/04/10 09:13:10;;;;;;;16.27;10.93;;;;;;;;;;5109137;28;20051;-70
2023/04/10 09:16:00;;;;;;;14.95;9.75;;;;;;;;;;5110198;28;20546;-69
2023/04/10 09:18:41;;;;;;;17.00;10.75;;;;;;;;;;5110784;28;20042;-69
2023/04/10 09:21:08;;;;;;;14.20;10.25;;;;;;;;;;5105057;28;20055;-69
2023/04/10 09:23:36;;;;;;;15.32;10.77;;;;;;;;;;5109064;27;20050;-69
2023/04/10 09:26:06;;;;;;;14.73;10.73;;;;;;;;;;5108762;28;20051;-69
2023/04/10 09:28:42;;;;;;;15.75;10.60;;;;;;;;;;5108616;28;20409;-70
2023/04/10 09:31:27;;;;;;;14.40;10.23;;;;;;;;;;5110377;28;20513;-70
2023/04/10 09:33:58;;;;;;;15.57;10.32;;;;;;;;;;5104346;28;20055;-69
2023/04/10 09:36:25;;;;;;;16.52;10.35;;;;;;;;;;5103481;28;20044;-70
2023/04/10 09:38:55;;;;;;;14.32;10.18;;;;;;;;;;5108987;28;20039;-70
2023/04/10 09:41:22;;;;;;;12.45;9.35;;;;;;;;;;5102583;28;20135;-70
2023/04/10 09:43:50;;;;;;;13.77;9.45;;;;;;;;;;5105358;28;20066;-69
2023/04/10 09:46:27;;;;;;;14.93;9.90;;;;;;;;;;5114837;27;20062;-69
2023/04/10 09:48:56;;;;;;;14.00;8.73;;;;;;;;;;5106858;28;20418;-69
2023/04/10 09:51:29;;;;;;;14.27;9.73;;;;;;;;;;5103893;28;20571;-69
2023/04/10 09:53:56;;;;;;;14.77;9.40;;;;;;;;;;5106811;28;20051;-70
2023/04/10 09:56:26;;;;;;;12.77;8.90;;;;;;;;;;5107270;28;20076;-70
2023/04/10 09:58:56;;;;;;;13.70;9.18;;;;;;;;;;5109619;27;20097;-69
2023/04/10 10:01:26;;;;;;;11.85;8.82;;;;;;;;;;5110285;28;20075;-69
2023/04/10 10:03:54;;;;;;;14.13;9.57;;;;;;;;;;5108146;28;20055;-69
2023/04/10 10:06:22;;;;;;;17.90;9.10;;;;;;;;;;5108205;28;20044;-69
2023/04/10 10:08:49;;;;;;;12.35;8.80;;;;;;;;;;5104978;28;20044;-70
2023/04/10 10:11:19;;;;;;;11.70;8.55;;;;;;;;;;5102616;28;20057;-69
2023/04/10 10:13:50;;;;;;;15.05;9.55;;;;;;;;;;5105726;28;20054;-69
2023/04/10 10:16:20;;;;;;;11.90;8.70;;;;;;;;;;5107853;28;20051;-69
2023/04/10 10:18:52;;;;;;;13.30;9.05;;;;;;;;;;5105318;27;20039;-69
2023/04/10 10:21:19;;;;;;;11.70;8.43;;;;;;;;;;5101681;28;20460;-70
2023/04/10 10:23:52;;;;;;;15.02;9.18;;;;;;;;;;5103703;28;20104;-69
2023/04/10 10:26:20;;;;;;;13.43;9.10;;;;;;;;;;5104873;27;20052;-70
2023/04/10 10:28:47;;;;;;;12.82;8.63;;;;;;;;;;5106739;28;20686;-69
2023/04/10 10:31:17;;;;;;;15.18;9.00;;;;;;;;;;5106287;28;20154;-70
2023/04/10 10:33:45;;;;;;;11.80;8.35;;;;;;;;;;5108073;28;20203;-69
2023/04/10 10:36:16;;;;;;;12.02;9.05;;;;;;;;;;5107254;28;20071;-70
2023/04/10 10:38:48;;;;;;;11.38;8.63;;;;;;;;;;5106712;27;20040;-69
2023/04/10 10:41:19;;;;;;;10.90;8.32;;;;;;;;;;5106201;28;20047;-69
2023/04/10 10:43:51;;;;;;;11.10;8.43;;;;;;;;;;5100842;28;20131;-69
2023/04/10 10:46:23;;;;;;;10.98;8.43;;;;;;;;;;5110695;27;20048;-69
2023/04/10 10:48:57;;;;;;;11.38;7.93;;;;;;;;;;5106823;28;20062;-69
2023/04/10 10:51:43;;;;;;;11.68;7.97;;;;;;;;;;5104515;28;20414;-70
2023/04/10 10:54:25;;;;;;;12.60;7.88;;;;;;;;;;5103883;28;20051;-69
2023/04/10 10:56:52;;;;;;;12.13;8.25;;;;;;;;;;5108763;28;20528;-69
2023/04/10 10:59:19;;;;;;;11.60;8.50;;;;;;;;;;5104909;28;20062;-69
2023/04/10 11:02:14;;;;;;;11.27;7.93;;;;;;;;;;5108441;28;20051;-69
2023/04/10 11:04:45;;;;;;;11.50;8.05;;;;;;;;;;5105484;27;20116;-69
2023/04/10 11:07:14;;;;;;;12.65;8.25;;;;;;;;;;5105323;28;20101;-69
2023/04/10 11:09:48;;;;;;;11.25;8.43;;;;;;;;;;5108026;28;20055;-69
2023/04/10 11:12:16;;;;;;;10.65;7.72;;;;;;;;;;5107057;28;20116;-69
2023/04/10 11:14:44;;;;;;;12.32;8.02;;;;;;;;;;5108750;28;20138;-69
2023/04/10 11:17:11;;;;;;;12.82;8.55;;;;;;;;;;5106299;28;20043;-69
2023/04/10 11:20:06;;;;;;;10.32;8.00;;;;;;;;;;5108539;28;20051;-69
2023/04/10 11:22:55;;;;;;;12.27;8.05;;;;;;;;;;5082693;28;20512;-70
2023/04/10 11:25:22;;;;;;;10.85;7.57;;;;;;;;;;5106496;28;20051;-70
2023/04/10 11:27:51;;;;;;;11.02;8.05;;;;;;;;;;5106941;28;20146;-69
2023/04/10 11:30:31;;;;;;;10.38;7.57;;;;;;;;;;5105641;28;20075;-70
2023/04/10 11:32:59;;;;;;;10.35;8.07;;;;;;;;;;5104802;28;20056;-70
2023/04/10 11:35:27;;;;;;;10.07;7.90;;;;;;;;;;5105259;28;20104;-69
2023/04/10 11:38:09;;;;;;;10.73;8.32;;;;;;;;;;5105945;27;20104;-69
2023/04/10 11:40:53;;;;;;;10.85;8.00;;;;;;;;;;5103420;28;20510;-69
2023/04/10 11:43:20;;;;;;;;;;;;;;;;;;5101944;28;20086;-69
2023/04/10 11:45:47;;;;;;;9.40;7.40;;;;;;;;;;5107099;28;19924;-70
2023/04/10 11:48:16;;;;;;;11.63;7.00;;;;;;;;;;5106989;28;20055;-69
2023/04/10 11:50:43;;;;;;;11.60;7.68;;;;;;;;;;5105814;28;20046;-69
2023/04/10 11:53:20;;;;;;;9.82;7.22;;;;;;;;;;5105584;28;20062;-69
2023/04/10 11:55:49;;;;;;;8.95;6.95;;;;;;;;;;5103564;28;20044;-69
2023/04/10 11:58:23;;;;;;;9.50;7.18;;;;;;;;;;5104494;28;20348;-69
2023/04/10 12:00:56;;;;;;;9.27;7.07;;;;;;;;;;5106742;28;20058;-69
2023/04/10 12:03:23;;;;;;;;;;;;;;;;;;5102422;28;20070;-69
2023/04/10 12:05:50;;;;;;;10.43;6.70;;;;;;;;;;5100186;28;19934;-69
2023/04/10 12:08:19;;;;;;;8.10;6.40;;;;;;;;;;5105170;28;20387;-69
2023/04/10 12:10:46;;;;;;;9.48;7.28;;;;;;;;;;5101004;28;20074;-69
2023/04/10 12:13:26;;;;;;;9.18;6.65;;;;;;;;;;5102356;28;20083;-69
2023/04/10 12:15:54;;;;;;;8.57;6.72;;;;;;;;;;5100766;28;20048;-69
2023/04/10 12:18:22;;;;;;;9.18;7.22;;;;;;;;;;5107624;28;20087;-69
2023/04/10 12:20:50;;;;;;;10.10;6.90;;;;;;;;;;5098671;28;20051;-69
2023/04/10 12:23:18;;;;;;;10.05;7.30;;;;;;;;;;5099410;28;20094;-69
2023/04/10 12:25:45;;;;;;;8.70;6.50;;;;;;;;;;5107473;28;20046;-69
2023/04/10 12:28:18;;;;;;;11.80;7.00;;;;;;;;;;5106515;28;20387;-69
2023/04/10 12:30:52;;;;;;;8.57;6.40;;;;;;;;;;5106698;28;20051;-69
2023/04/10 12:33:22;;;;;;;9.77;6.43;;;;;;;;;;5106908;28;20619;-69
2023/04/10 12:35:50;;;;;;;9.10;6.80;;;;;;;;;;5102556;28;20163;-69
2023/04/10 12:38:35;;;;;;;8.73;7.22;;;;;;;;;;5106687;28;20052;-69
2023/04/10 12:41:02;;;;;;;9.43;7.18;;;;;;;;;;5106034;28;20418;-69
2023/04/10 12:43:31;;;;;;;12.63;7.03;;;;;;;;;;5108703;27;20044;-69
2023/04/10 12:46:00;;;;;;;10.20;6.97;;;;;;;;;;5111119;27;20043;-69
2023/04/10 12:48:27;;;;;;;9.98;7.05;;;;;;;;;;5109993;27;20051;-69
2023/04/10 12:50:54;;;;;;;10.13;6.80;;;;;;;;;;5104122;28;20051;-69
2023/04/10 12:53:22;;;;;;;12.15;7.28;;;;;;;;;;5107862;27;20052;-69
2023/04/10 12:55:59;;;;;;;10.82;6.50;;;;;;;;;;5107219;28;20048;-69
2023/04/10 12:58:27;;;;;;;11.07;6.93;;;;;;;;;;5108146;27;20452;-69
2023/04/10 13:00:55;;;;;;;9.02;6.97;;;;;;;;;;5109276;27;20055;-69
2023/04/10 13:03:24;;;;;;;8.68;6.82;;;;;;;;;;5108550;28;20127;-69
2023/04/10 13:05:52;;;;;;;8.57;7.00;;;;;;;;;;5103832;28;20104;-69
2023/04/10 13:08:20;;;;;;;12.02;7.18;;;;;;;;;;5105918;28;20044;-69
2023/04/10 13:10:47;;;;;;;8.90;6.65;;;;;;;;;;5109375;28;20040;-69
2023/04/10 13:13:18;;;;;;;9.82;7.05;;;;;;;;;;5100967;27;20051;-69
2023/04/10 13:15:45;;;;;;;11.98;7.15;;;;;;;;;;5106574;27;20391;-68
2023/04/10 13:18:12;;;;;;;8.05;6.55;;;;;;;;;;5105543;27;20047;-68
2023/04/10 13:20:41;;;;;;;9.32;6.53;;;;;;;;;;5104763;27;20039;-68
2023/04/10 13:23:09;;;;;;;11.48;7.05;;;;;;;;;;5104071;27;20433;-68
2023/04/10 13:25:39;;;;;;;7.97;6.57;;;;;;;;;;5107732;27;20039;-68
2023/04/10 13:28:10;;;;;;;9.13;7.07;;;;;;;;;;5106069;28;20083;-68
2023/04/10 13:30:37;;;;;;;9.95;6.68;;;;;;;;;;5108988;28;20047;-68
2023/04/10 13:33:05;;;;;;;10.68;6.68;;;;;;;;;;5109411;28;20054;-68
2023/04/10 13:35:32;;;;;;;9.35;6.45;;;;;;;;;;5109332;27;20044;-68
2023/04/10 13:38:01;;;;;;;9.35;6.60;;;;;;;;;;5107040;28;20131;-68
2023/04/10 13:40:28;;;;;;;9.45;6.70;;;;;;;;;;5099476;28;20043;-68
2023/04/10 13:42:55;;;;;;;10.77;6.85;;;;;;;;;;5097607;28;20055;-69
2023/04/10 13:45:23;;;;;;;13.38;6.70;;;;;;;;;;5103044;27;20054;-68
2023/04/10 13:47:50;;;;;;;8.75;6.50;;;;;;;;;;5109810;27;20395;-68
2023/04/10 13:50:17;;;;;;;9.07;6.25;;;;;;;;;;5103558;28;20428;-69
2023/04/10 13:52:44;;;;;;;9.10;7.07;;;;;;;;;;5107494;27;20478;-68
2023/04/10 13:55:13;;;;;;;10.60;6.95;;;;;;;;;;5102882;28;20043;-68
2023/04/10 13:57:40;;;;;;;8.70;7.15;;;;;;;;;;5109299;27;20051;-68
2023/04/10 14:00:09;;;;;;;9.90;7.13;;;;;;;;;;5100261;28;20048;-68
2023/04/10 14:02:36;;;;;;;11.05;7.60;;;;;;;;;;5106464;28;20510;-68
2023/04/10 14:05:04;;;;;;;11.13;8.18;;;;;;;;;;5107242;28;20054;-68
2023/04/10 14:07:32;;;;;;;9.85;7.47;;;;;;;;;;5102216;28;20070;-68
2023/04/10 14:10:00;;;;;;;9.75;7.75;;;;;;;;;;5104224;28;20048;-68
2023/04/10 14:12:28;;;;;;;10.05;7.45;;;;;;;;;;5109117;28;20414;-68
2023/04/10 14:14:56;;;;;;;12.63;8.00;;;;;;;;;;5107919;28;20148;-68
2023/04/10 14:17:24;;;;;;;14.70;8.45;;;;;;;;;;5109209;28;20052;-68
2023/04/10 14:19:52;;;;;;;12.57;7.93;;;;;;;;;;5104768;28;20383;-68
2023/04/10 14:22:19;;;;;;;11.75;7.28;;;;;;;;;;5102643;28;20050;-69
2023/04/10 14:24:47;;;;;;;12.02;8.30;;;;;;;;;;5107119;28;20051;-69
2023/04/10 14:27:15;;;;;;;11.20;8.10;;;;;;;;;;5105790;28;20047;-68
2023/04/10 14:29:44;;;;;;;10.93;8.05;;;;;;;;;;5103906;28;20383;-68
2023/04/10 14:32:11;;;;;;;11.25;8.57;;;;;;;;;;5103952;28;20048;-69
2023/04/10 14:34:38;;;;;;;12.90;8.80;;;;;;;;;;5106135;28;20119;-68